createdAt,value
2023-04-16T00:00:49.582Z,99958.31
2023-04-16T00:03:21.407Z,99963.15
2023-04-16T00:05:56.086Z,99964.42
2023-04-16T00:08:27.851Z,99963.95
2023-04-16T00:10:59.249Z,99965.54
2023-04-16T00:13:30.811Z,99961.84
2023-04-16T00:16:02.097Z,99970.05
2023-04-16T00:18:33.640Z,99966.42
2023-04-16T00:21:05.000Z,99967.60
2023-04-16T00:23:36.944Z,99964.92
2023-04-16T00:26:08.510Z,99960.52
2023-04-16T00:28:40.299Z,99962.37
2023-04-16T00:31:11.753Z,99960.70
2023-04-16T00:33:43.156Z,99962.08
2023-04-16T00:36:14.567Z,99959.36
2023-04-16T00:38:45.972Z,99964.21
2023-04-16T00:41:17.568Z,99968.31
2023-04-16T00:43:48.884Z,99968.91
2023-04-16T00:46:21.465Z,99967.73
2023-04-16T00:48:55.409Z,99967.79
2023-04-16T00:51:27.405Z,99964.38
2023-04-16T00:53:59.609Z,99967.34
2023-04-16T00:56:31.833Z,99969.95
2023-04-16T00:59:03.248Z,99972.71
2023-04-16T01:01:34.849Z,99975.37
2023-04-16T01:04:07.406Z,99977.98
2023-04-16T01:06:38.898Z,99977.11
2023-04-16T01:09:11.457Z,99980.76
2023-04-16T01:11:42.933Z,99981.66
2023-04-16T01:14:14.552Z,99981.34
2023-04-16T01:16:46.168Z,99983.30
2023-04-16T01:19:17.608Z,99979.53
2023-04-16T01:21:49.062Z,99980.54
2023-04-16T01:24:20.627Z,99978.76
2023-04-16T01:26:51.929Z,99977.96
2023-04-16T01:29:23.167Z,99979.27
2023-04-16T01:31:54.617Z,99981.84
2023-04-16T01:34:25.989Z,99985.53
2023-04-16T01:36:57.406Z,99984.77
2023-04-16T01:39:28.860Z,99982.21
2023-04-16T01:42:00.033Z,99984.55
2023-04-16T01:44:31.555Z,99983.98
2023-04-16T01:47:02.904Z,99982.80
2023-04-16T01:49:35.141Z,99985.28
2023-04-16T01:52:08.643Z,99988.66
2023-04-16T01:54:40.052Z,99987.36
2023-04-16T01:57:11.431Z,99990.25
2023-04-16T01:59:42.912Z,99989.66
2023-04-16T02:02:16.657Z,99990.99
2023-04-16T02:04:48.891Z,99987.55
2023-04-16T02:07:20.264Z,99990.55
2023-04-16T02:09:51.752Z,99992.71
2023-04-16T02:12:23.127Z,99996.36
2023-04-16T02:14:54.616Z,99997.08
2023-04-16T02:17:25.993Z,100002.26
2023-04-16T02:19:57.553Z,99999.06
2023-04-16T02:22:28.885Z,100004.38
2023-04-16T02:25:00.379Z,100007.92
2023-04-16T02:27:31.780Z,100016.30
2023-04-16T02:30:04.607Z,100016.32
2023-04-16T02:32:36.119Z,100014.33
2023-04-16T02:35:08.477Z,100019.34
2023-04-16T02:37:41.194Z,100016.66
2023-04-16T02:40:14.753Z,100016.70
2023-04-16T02:42:46.332Z,100020.10
2023-04-16T02:45:18.228Z,100022.23
2023-04-16T02:47:49.569Z,100023.72
2023-04-16T02:50:21.475Z,100024.27
2023-04-16T02:52:53.333Z,100028.02
2023-04-16T02:55:24.999Z,100029.02
2023-04-16T02:57:56.430Z,100031.33
2023-04-16T03:00:27.937Z,100033.86
2023-04-16T03:02:59.603Z,100032.47
2023-04-16T03:05:31.232Z,100035.16
2023-04-16T03:08:02.691Z,100038.60
2023-04-16T03:10:35.299Z,100039.15
2023-04-16T03:13:07.085Z,100038.09
2023-04-16T03:15:38.772Z,100040.38
2023-04-16T03:18:10.414Z,100037.45
2023-04-16T03:20:41.756Z,100040.01
2023-04-16T03:23:13.394Z,100042.88
2023-04-16T03:25:47.438Z,100043.84
2023-04-16T03:28:18.954Z,100048.75
2023-04-16T03:30:55.388Z,100049.92
2023-04-16T03:33:27.350Z,100049.38
2023-04-16T03:36:01.759Z,100052.10
2023-04-16T03:38:33.711Z,100047.96
2023-04-16T03:41:05.387Z,100055.19
2023-04-16T03:43:46.140Z,100053.05
2023-04-16T03:46:29.106Z,100053.85
2023-04-16T03:49:14.579Z,100058.58
2023-04-16T03:51:56.760Z,100063.61
2023-04-16T03:54:38.352Z,100064.95
2023-04-16T03:57:17.571Z,100065.34
2023-04-16T03:59:59.724Z,100070.06
2023-04-16T04:02:31.654Z,100073.98
2023-04-16T04:05:03.561Z,100078.30
2023-04-16T04:07:35.080Z,100076.55
2023-04-16T04:10:06.932Z,100078.82
2023-04-16T04:12:38.326Z,100081.45
2023-04-16T04:15:11.940Z,100086.02
2023-04-16T04:17:43.485Z,100089.22
2023-04-16T04:20:16.045Z,100089.25
2023-04-16T04:22:47.341Z,100089.64
2023-04-16T04:25:19.856Z,100092.69
2023-04-16T04:27:51.272Z,100097.83
2023-04-16T04:30:22.809Z,100096.73
2023-04-16T04:32:54.154Z,100102.44
2023-04-16T04:35:26.014Z,100103.23
2023-04-16T04:37:57.679Z,100102.98
2023-04-16T04:40:29.358Z,100102.48
2023-04-16T04:43:00.801Z,100109.08
2023-04-16T04:45:32.480Z,100112.21
2023-04-16T04:48:04.082Z,100113.66
2023-04-16T04:50:35.546Z,100112.17
2023-04-16T04:53:10.482Z,100116.35
2023-04-16T04:55:41.841Z,100116.96
2023-04-16T04:58:13.404Z,100119.80
2023-04-16T05:00:45.062Z,100121.26
2023-04-16T05:03:20.836Z,100124.74
2023-04-16T05:05:52.314Z,100131.80
2023-04-16T05:08:23.752Z,100130.23
2023-04-16T05:10:55.301Z,100132.33
2023-04-16T05:13:27.588Z,100131.23
2023-04-16T05:15:58.918Z,100135.65
2023-04-16T05:18:30.634Z,100133.58
2023-04-16T05:21:02.072Z,100135.09
2023-04-16T05:23:33.952Z,100135.23
2023-04-16T05:26:05.483Z,100139.88
2023-04-16T05:28:37.034Z,100138.37
2023-04-16T05:31:08.673Z,100140.18
2023-04-16T05:33:40.761Z,100140.27
2023-04-16T05:36:12.286Z,100140.60
2023-04-16T05:38:43.722Z,100139.21
2023-04-16T05:41:15.078Z,100142.49
2023-04-16T05:43:46.619Z,100146.29
2023-04-16T05:46:18.161Z,100144.20
2023-04-16T05:48:49.623Z,100150.77
2023-04-16T05:51:23.357Z,100153.13
2023-04-16T05:53:55.005Z,100151.98
2023-04-16T05:56:27.412Z,100164.60
2023-04-16T05:58:59.165Z,100165.92
2023-04-16T06:01:31.129Z,100165.95
2023-04-16T06:04:03.908Z,100168.14
2023-04-16T06:06:35.479Z,100173.73
2023-04-16T06:09:07.127Z,100176.89
2023-04-16T06:11:38.727Z,100178.41
2023-04-16T06:14:10.160Z,100180.77
2023-04-16T06:16:41.969Z,100183.33
2023-04-16T06:19:13.358Z,100177.04
2023-04-16T06:21:44.921Z,100180.52
2023-04-16T06:24:16.353Z,100184.08
2023-04-16T06:26:47.958Z,100184.90
2023-04-16T06:29:21.298Z,100187.81
2023-04-16T06:31:54.175Z,100188.77
2023-04-16T06:34:26.313Z,100193.03
2023-04-16T06:36:58.419Z,100196.63
2023-04-16T06:39:30.057Z,100198.94
2023-04-16T06:42:01.885Z,100200.50
2023-04-16T06:44:33.389Z,100199.02
2023-04-16T06:47:06.153Z,100201.29
2023-04-16T06:49:37.734Z,100212.14
2023-04-16T06:52:10.368Z,100214.66
2023-04-16T06:54:42.295Z,100217.59
2023-04-16T06:57:13.883Z,100219.67
2023-04-16T06:59:45.490Z,100219.88
2023-04-16T07:02:17.123Z,100217.25
2023-04-16T07:04:49.375Z,100215.31
2023-04-16T07:07:20.961Z,100219.80
2023-04-16T07:09:52.416Z,100220.79
2023-04-16T07:12:23.847Z,100215.14
2023-04-16T07:14:55.193Z,100219.87
2023-04-16T07:17:27.650Z,100215.33
2023-04-16T07:20:03.570Z,100219.45
2023-04-16T07:22:35.500Z,100218.00
2023-04-16T07:25:08.714Z,100225.20
2023-04-16T07:27:40.995Z,100230.60
2023-04-16T07:30:14.537Z,100231.83
2023-04-16T07:32:47.498Z,100232.67
2023-04-16T07:35:20.857Z,100230.18
2023-04-16T07:37:52.669Z,100242.16
2023-04-16T07:40:24.816Z,100244.61
2023-04-16T07:42:56.731Z,100248.45
2023-04-16T07:45:28.446Z,100252.27
2023-04-16T07:48:00.696Z,100258.91
2023-04-16T07:50:32.326Z,100264.88
2023-04-16T07:53:03.958Z,100268.33
2023-04-16T07:55:35.932Z,100271.55
2023-04-16T07:58:09.874Z,100267.09
2023-04-16T08:00:42.640Z,100267.63
2023-04-16T08:03:16.481Z,100269.86
2023-04-16T08:05:49.446Z,100269.92
2023-04-16T08:08:21.091Z,100274.64
2023-04-16T08:10:56.102Z,100276.98
2023-04-16T08:13:27.769Z,100278.36
2023-04-16T08:15:59.325Z,100282.75
2023-04-16T08:18:31.526Z,100283.96
2023-04-16T08:21:02.983Z,100286.06
2023-04-16T08:23:34.965Z,100282.23
2023-04-16T08:26:06.456Z,100285.67
2023-04-16T08:28:47.081Z,100287.02
2023-04-16T08:31:20.112Z,100292.89
2023-04-16T08:33:51.524Z,100292.34
2023-04-16T08:36:23.120Z,100293.58
2023-04-16T08:38:54.550Z,100296.66
2023-04-16T08:41:29.972Z,100293.91
2023-04-16T08:44:05.644Z,100296.42
2023-04-16T08:46:42.256Z,100297.02
2023-04-16T08:49:19.890Z,100304.29
2023-04-16T08:51:54.113Z,100304.36
2023-04-16T08:54:36.278Z,100305.73
2023-04-16T08:57:12.083Z,100308.98
2023-04-16T08:59:47.961Z,100311.16
2023-04-16T09:02:20.009Z,100312.34
2023-04-16T09:04:52.882Z,100318.98
2023-04-16T09:07:26.156Z,100322.73
2023-04-16T09:09:59.482Z,100326.34
2023-04-16T09:12:31.690Z,100327.18
2023-04-16T09:15:05.296Z,100326.83
2023-04-16T09:17:38.509Z,100325.93
2023-04-16T09:20:12.836Z,100327.70
2023-04-16T09:22:45.018Z,100331.20
2023-04-16T09:25:16.547Z,100329.28
2023-04-16T09:27:51.089Z,100330.84
2023-04-16T09:30:29.207Z,100334.16
2023-04-16T09:36:14.085Z,100334.16
2023-04-16T09:38:56.252Z,100333.09
2023-04-16T09:41:31.554Z,100337.49
2023-04-16T09:44:05.847Z,100342.13
2023-04-16T09:46:42.236Z,100340.37
2023-04-16T09:49:15.709Z,100341.45
2023-04-16T09:51:48.825Z,100345.49
2023-04-16T09:54:21.404Z,100350.98
2023-04-16T09:56:53.090Z,100351.73
2023-04-16T09:59:25.816Z,100356.92
2023-04-16T10:02:15.886Z,100357.86
2023-04-16T10:04:53.128Z,100360.27
2023-04-16T10:07:29.556Z,100360.23
2023-04-16T10:10:01.629Z,100363.24
2023-04-16T10:12:34.150Z,100365.23
2023-04-16T10:15:06.268Z,100365.94
2023-04-16T10:17:38.973Z,100363.48
2023-04-16T10:20:12.260Z,100364.70
2023-04-16T10:22:44.154Z,100367.70
2023-04-16T10:25:16.974Z,100366.54
2023-04-16T10:27:49.304Z,100375.19
2023-04-16T10:30:22.015Z,100374.64
2023-04-16T10:32:54.079Z,100371.09
2023-04-16T10:35:27.252Z,100376.64
2023-04-16T10:38:21.322Z,100376.73
2023-04-16T10:40:52.883Z,100377.56
2023-04-16T10:43:26.833Z,100381.05
2023-04-16T10:45:58.950Z,100378.35
2023-04-16T10:48:46.474Z,100376.27
2023-04-16T10:51:33.362Z,100376.63
2023-04-16T10:54:23.192Z,100380.85
2023-04-16T10:56:55.961Z,100380.14
2023-04-16T10:59:31.745Z,100385.07
2023-04-16T11:02:08.531Z,100387.98
2023-04-16T11:04:41.269Z,100391.34
2023-04-16T11:07:19.907Z,100389.15
2023-04-16T11:09:59.878Z,100393.48
2023-04-16T11:12:38.300Z,100400.30
2023-04-16T11:15:11.804Z,100400.00
2023-04-16T11:17:45.045Z,100403.57
2023-04-16T11:20:22.798Z,100406.30
2023-04-16T11:22:56.220Z,100404.73
2023-04-16T11:25:29.961Z,100401.45
2023-04-16T11:28:03.573Z,100399.18
2023-04-16T11:30:36.573Z,100406.63
2023-04-16T11:33:10.062Z,100403.91
2023-04-16T11:35:43.747Z,100405.73
2023-04-16T11:38:15.761Z,100408.21
2023-04-16T11:40:51.951Z,100405.09
2023-04-16T11:43:24.022Z,100407.40
2023-04-16T11:46:10.255Z,100406.76
2023-04-16T11:48:55.689Z,100408.58
2023-04-16T11:51:27.434Z,100410.91
2023-04-16T11:53:59.074Z,100412.64
2023-04-16T11:56:33.179Z,100412.12
2023-04-16T11:59:13.145Z,100411.78
2023-04-16T12:01:48.341Z,100410.97
2023-04-16T12:04:22.684Z,100410.60
2023-04-16T12:07:14.072Z,100409.48
2023-04-16T12:09:46.121Z,100412.01
2023-04-16T12:12:32.433Z,100406.43
2023-04-16T12:15:05.059Z,100401.71
2023-04-16T12:17:37.814Z,100401.29
2023-04-16T12:20:12.958Z,100399.38
2023-04-16T12:22:48.392Z,100395.22
2023-04-16T12:25:20.348Z,100394.96
2023-04-16T12:27:54.306Z,100395.52
2023-04-16T12:30:27.697Z,100399.64
2023-04-16T12:33:17.198Z,100399.05
2023-04-16T12:35:48.989Z,100399.89
2023-04-16T12:38:22.813Z,100399.03
2023-04-16T12:40:57.468Z,100399.58
2023-04-16T12:43:29.852Z,100396.33
2023-04-16T12:46:04.185Z,100397.70
2023-04-16T12:48:34.199Z,100400.56
2023-04-16T12:51:05.679Z,100399.97
2023-04-16T12:53:37.992Z,100399.65
2023-04-16T12:56:09.715Z,100399.48
2023-04-16T12:58:41.352Z,100402.80
2023-04-16T13:01:13.100Z,100401.91
2023-04-16T13:03:44.871Z,100399.48
2023-04-16T13:06:17.536Z,100401.06
2023-04-16T13:08:49.172Z,100403.29
2023-04-16T13:11:20.699Z,100399.53
2023-04-16T13:13:52.103Z,100398.51
2023-04-16T13:16:23.666Z,100400.38
2023-04-16T13:18:55.507Z,100399.41
2023-04-16T13:21:27.515Z,100399.05
2023-04-16T13:23:59.282Z,100403.50
2023-04-16T13:26:30.853Z,100407.41
2023-04-16T13:29:02.456Z,100407.64
2023-04-16T13:31:34.111Z,100403.77
2023-04-16T13:34:06.550Z,100408.31
2023-04-16T13:36:38.093Z,100409.91
2023-04-16T13:39:12.146Z,100408.99
2023-04-16T13:41:46.250Z,100406.06
2023-04-16T13:44:17.666Z,100406.66
2023-04-16T13:46:50.027Z,100409.33
2023-04-16T13:49:22.019Z,100409.55
2023-04-16T13:51:53.498Z,100404.45
2023-04-16T13:54:25.641Z,100407.63
2023-04-16T13:57:02.605Z,100409.70
2023-04-16T13:59:35.240Z,100410.32
2023-04-16T14:02:13.349Z,100413.84
2023-04-16T14:04:45.185Z,100411.97
2023-04-16T14:07:17.509Z,100409.50
2023-04-16T14:09:49.018Z,100412.21
2023-04-16T14:12:22.498Z,100410.89
2023-04-16T14:14:53.996Z,100409.30
2023-04-16T14:17:25.744Z,100411.03
2023-04-16T14:19:57.644Z,100408.59
2023-04-16T14:22:30.751Z,100410.50
2023-04-16T14:25:03.861Z,100410.34
2023-04-16T14:27:36.503Z,100412.30
2023-04-16T14:30:09.383Z,100410.45
2023-04-16T14:32:44.578Z,100405.40
2023-04-16T14:35:17.127Z,100406.13
2023-04-16T14:37:49.085Z,100406.14
2023-04-16T14:40:22.080Z,100406.25
2023-04-16T14:42:54.055Z,100406.25
2023-04-16T14:45:29.361Z,100404.52
2023-04-16T14:48:01.588Z,100406.52
2023-04-16T14:50:33.321Z,100403.10
2023-04-16T14:53:05.399Z,100405.46
2023-04-16T14:55:37.463Z,100410.86
2023-04-16T14:58:09.748Z,100412.50
2023-04-16T15:00:41.512Z,100409.27
2023-04-16T15:03:13.284Z,100411.77
2023-04-16T15:05:45.211Z,100411.94
2023-04-16T15:08:17.124Z,100414.91
2023-04-16T15:10:48.691Z,100416.42
2023-04-16T15:13:21.805Z,100412.29
2023-04-16T15:15:53.552Z,100418.95
2023-04-16T15:18:29.065Z,100420.43
2023-04-16T15:21:01.511Z,100424.98
2023-04-16T15:23:34.896Z,100427.16
2023-04-16T15:26:07.674Z,100423.02
2023-04-16T15:28:39.905Z,100421.16
2023-04-16T15:31:13.064Z,100426.31
2023-04-16T15:33:45.505Z,100423.48
2023-04-16T15:36:21.273Z,100426.34
2023-04-16T15:38:53.553Z,100428.59
2023-04-16T15:41:26.429Z,100428.41
2023-04-16T15:43:59.956Z,100430.13
2023-04-16T15:46:36.931Z,100425.95
2023-04-16T15:49:10.576Z,100429.00
2023-04-16T15:51:45.333Z,100423.71
2023-04-16T15:54:22.852Z,100428.21
2023-04-16T15:56:56.132Z,100431.73
2023-04-16T15:59:29.369Z,100430.13
2023-04-16T16:02:02.227Z,100432.33
2023-04-16T16:04:34.652Z,100431.64
2023-04-16T16:07:07.416Z,100434.73
2023-04-16T16:09:40.311Z,100434.04
2023-04-16T16:12:12.971Z,100434.83
2023-04-16T16:14:45.052Z,100438.30
2023-04-16T16:17:18.025Z,100441.45
2023-04-16T16:19:50.173Z,100442.53
2023-04-16T16:22:24.199Z,100446.64
2023-04-16T16:24:58.900Z,100448.54
2023-04-16T16:27:32.626Z,100443.15
2023-04-16T16:30:10.355Z,100445.15
2023-04-16T16:32:44.673Z,100444.83
2023-04-16T16:35:26.197Z,100447.07
2023-04-16T16:38:06.997Z,100448.67
2023-04-16T16:40:49.549Z,100448.60
2023-04-16T16:43:24.310Z,100451.28
2023-04-16T16:46:08.492Z,100447.88
2023-04-16T16:48:51.242Z,100455.59
2023-04-16T16:51:24.056Z,100453.28
2023-04-16T16:54:00.922Z,100456.95
2023-04-16T16:56:32.873Z,100460.12
2023-04-16T16:59:19.798Z,100461.95
2023-04-16T17:01:52.827Z,100463.91
2023-04-16T17:04:24.859Z,100463.90
2023-04-16T17:06:57.032Z,100466.34
2023-04-16T17:09:30.816Z,100470.48
2023-04-16T17:12:05.224Z,100473.13
2023-04-16T17:14:42.331Z,100471.28
2023-04-16T17:17:13.879Z,100478.94
2023-04-16T17:19:46.873Z,100480.48
2023-04-16T17:22:19.994Z,100488.55
2023-04-16T17:24:52.642Z,100489.39
2023-04-16T17:27:28.599Z,100490.22
2023-04-16T17:30:02.714Z,100494.58
2023-04-16T17:32:35.623Z,100494.03
2023-04-16T17:35:13.326Z,100498.86
2023-04-16T17:37:47.384Z,100497.99
2023-04-16T17:40:21.614Z,100498.14
2023-04-16T17:42:54.949Z,100503.63
2023-04-16T17:45:31.488Z,100501.00
2023-04-16T17:48:15.942Z,100503.67
2023-04-16T17:50:54.002Z,100513.36
2023-04-16T17:53:27.034Z,100518.84
2023-04-16T17:55:59.294Z,100521.33
2023-04-16T17:58:36.099Z,100526.82
2023-04-16T18:01:11.048Z,100524.76
2023-04-16T18:03:56.711Z,100531.04
2023-04-16T18:06:39.089Z,100532.52
2023-04-16T18:09:15.343Z,100534.54
2023-04-16T18:11:47.995Z,100536.38
2023-04-16T18:14:22.473Z,100534.53
2023-04-16T18:16:54.982Z,100536.26
2023-04-16T18:19:27.301Z,100540.15
2023-04-16T18:22:01.151Z,100542.42
2023-04-16T18:24:36.528Z,100543.79
2023-04-16T18:27:09.093Z,100546.54
2023-04-16T18:29:45.338Z,100548.12
2023-04-16T18:32:18.308Z,100554.13
2023-04-16T18:34:50.596Z,100557.27
2023-04-16T18:37:23.060Z,100557.62
2023-04-16T18:43:16.337Z,100558.65
2023-04-16T18:45:48.399Z,100561.39
2023-04-16T18:48:23.590Z,100561.52
2023-04-16T18:51:01.425Z,100559.11
2023-04-16T18:53:34.659Z,100559.83
2023-04-16T18:56:07.820Z,100558.52
2023-04-16T18:58:41.393Z,100560.04
2023-04-16T19:01:14.760Z,100557.05
2023-04-16T19:03:48.447Z,100554.98
2023-04-16T19:06:21.216Z,100557.53
2023-04-16T19:08:53.441Z,100559.36
2023-04-16T19:11:29.794Z,100559.23
2023-04-16T19:14:13.516Z,100557.19
2023-04-16T19:16:50.309Z,100557.77
2023-04-16T19:19:29.459Z,100558.16
2023-04-16T19:22:02.765Z,100558.27
2023-04-16T19:24:40.757Z,100554.58
2023-04-16T19:27:13.988Z,100551.56
2023-04-16T19:29:48.850Z,100559.32
2023-04-16T19:32:21.819Z,100560.56
2023-04-16T19:34:54.591Z,100562.34
2023-04-16T19:37:31.227Z,100564.58
2023-04-16T19:40:21.187Z,100566.25
2023-04-16T19:42:53.979Z,100564.20
2023-04-16T19:45:29.240Z,100567.00
2023-04-16T19:48:03.483Z,100568.60
2023-04-16T19:50:35.684Z,100571.98
2023-04-16T19:53:08.357Z,100567.48
2023-04-16T19:55:42.997Z,100569.96
2023-04-16T19:58:15.457Z,100571.61
2023-04-16T20:00:47.606Z,100570.20
2023-04-16T20:03:22.173Z,100568.85
2023-04-16T20:05:52.371Z,100568.73
2023-04-16T20:08:24.841Z,100570.14
2023-04-16T20:10:58.855Z,100569.11
2023-04-16T20:13:31.702Z,100571.52
2023-04-16T20:16:28.276Z,100576.98
2023-04-16T20:19:08.086Z,100560.97
2023-04-16T20:21:46.451Z,100570.25
2023-04-16T20:24:19.175Z,100564.44
2023-04-16T20:26:57.664Z,100570.64
2023-04-16T20:29:29.396Z,100570.48
2023-04-16T20:32:00.880Z,100572.05
2023-04-16T20:34:32.476Z,100572.56
2023-04-16T20:37:05.184Z,100577.07
2023-04-16T20:39:39.213Z,100577.58
2023-04-16T20:42:11.837Z,100574.77
2023-04-16T20:44:50.788Z,100577.42
2023-04-16T20:47:22.875Z,100574.61
2023-04-16T20:49:55.161Z,100577.64
2023-04-16T20:52:26.626Z,100577.61
2023-04-16T20:54:58.195Z,100583.88
2023-04-16T20:57:32.346Z,100579.97
2023-04-16T21:00:06.012Z,100581.26
2023-04-16T21:02:37.901Z,100579.12
2023-04-16T21:05:15.237Z,100577.83
2023-04-16T21:07:46.743Z,100576.34
2023-04-16T21:10:20.504Z,100573.68
2023-04-16T21:12:52.030Z,100574.23
2023-04-16T21:15:23.417Z,100574.54
2023-04-16T21:17:56.800Z,100577.25
2023-04-16T21:20:30.347Z,100577.63
2023-04-16T21:23:02.798Z,100576.98
2023-04-16T21:25:37.575Z,100579.29
2023-04-16T21:28:09.528Z,100581.25
2023-04-16T21:30:40.836Z,100579.41
2023-04-16T21:33:15.008Z,100578.05
2023-04-16T21:35:46.363Z,100579.48
2023-04-16T21:38:17.921Z,100578.11
2023-04-16T21:40:51.483Z,100578.85
2023-04-16T21:43:23.018Z,100575.38
2023-04-16T21:45:56.891Z,100577.14
2023-04-16T21:48:28.882Z,100582.02
2023-04-16T21:51:06.932Z,100580.46
2023-04-16T21:53:39.280Z,100582.38
2023-04-16T21:56:11.505Z,100583.10
2023-04-16T21:58:43.111Z,100579.90
2023-04-16T22:01:14.595Z,100577.14
2023-04-16T22:03:47.625Z,100572.23
2023-04-16T22:06:20.728Z,100571.27
2023-04-16T22:08:53.723Z,100574.11
2023-04-16T22:11:25.135Z,100577.70
2023-04-16T22:13:58.117Z,100580.10
2023-04-16T22:16:29.559Z,100582.79
2023-04-16T22:19:01.617Z,100579.89
2023-04-16T22:21:33.053Z,100580.73
2023-04-16T22:24:04.803Z,100581.19
2023-04-16T22:26:36.148Z,100577.16
2023-04-16T22:29:07.738Z,100580.15
2023-04-16T22:31:39.369Z,100585.27
2023-04-16T22:34:11.145Z,100588.49
2023-04-16T22:36:42.667Z,100585.16
2023-04-16T22:39:14.371Z,100592.04
2023-04-16T22:41:45.954Z,100591.58
2023-04-16T22:44:17.255Z,100592.48
2023-04-16T22:46:49.102Z,100596.64
2023-04-16T22:49:20.846Z,100589.11
2023-04-16T22:51:52.327Z,100595.91
2023-04-16T22:54:23.652Z,100598.17
2023-04-16T22:56:55.020Z,100598.45
2023-04-16T22:59:28.152Z,100596.13
2023-04-16T23:01:59.831Z,100597.69
2023-04-16T23:04:31.374Z,100597.95
2023-04-16T23:07:02.834Z,100593.52
2023-04-16T23:09:34.914Z,100591.00
2023-04-16T23:12:06.741Z,100593.97
2023-04-16T23:14:38.259Z,100592.11
2023-04-16T23:17:09.858Z,100595.29
2023-04-16T23:19:41.289Z,100593.91
2023-04-16T23:22:13.221Z,100592.67
2023-04-16T23:24:44.592Z,100587.80
2023-04-16T23:27:16.035Z,100588.54
2023-04-16T23:29:47.499Z,100587.48
2023-04-16T23:32:18.986Z,100584.08
2023-04-16T23:34:50.652Z,100584.64
2023-04-16T23:37:22.362Z,100586.65
2023-04-16T23:39:53.687Z,100582.24
2023-04-16T23:42:25.147Z,100587.80
2023-04-16T23:44:56.763Z,100585.46
2023-04-16T23:47:28.312Z,100581.08
2023-04-16T23:49:59.620Z,100579.16
2023-04-16T23:52:30.894Z,100580.08
2023-04-16T23:55:02.425Z,100577.48
2023-04-16T23:57:34.006Z,100577.67
